Time;durP1;ratioP1;P1;durP2;ratioP2;P2;SDS_P1;SDS_P2;PMS_P1;PMS_P2;Temp;Humidity;BMP_temperature;BMP_pressure;BME280_temperature;BME280_humidity;BME280_pressure;Samples;Min_cycle;Max_cycle;Signal;HPM_P1;HPM_P2
2021/05/09 00:00:21;;;;;;;13.55;7.13;;;;;;;7.44;89.81;100496.84;5094003;28;20451;-72
2021/05/09 00:02:46;;;;;;;;;;;;;;;7.39;90.10;100492.00;5094592;28;20483;-72
2021/05/09 00:05:12;;;;;;;;;;;;;;;7.44;90.16;100504.81;5060074;28;19955;-72
2021/05/09 00:07:38;;;;;;;10.23;7.23;;;;;;;7.39;90.65;100496.47;5075754;28;19912;-72
2021/05/09 00:10:05;;;;;;;14.48;8.38;;;;;;;7.41;90.50;100497.16;5094004;28;20101;-72
2021/05/09 00:12:30;;;;;;;11.88;8.55;;;;;;;7.40;90.96;100499.00;5093652;28;20042;-71
2021/05/09 00:14:55;;;;;;;10.53;8.13;;;;;;;7.47;90.45;100479.78;5093753;28;20040;-72
2021/05/09 00:17:21;;;;;;;14.03;7.60;;;;;;;7.48;90.62;100479.66;5093712;28;20135;-71
2021/05/09 00:19:46;;;;;;;12.07;8.47;;;;;;;7.47;90.77;100467.38;5075636;28;20130;-71
2021/05/09 00:22:11;;;;;;;15.13;9.10;;;;;;;7.52;90.68;100465.09;5075784;28;20060;-71
2021/05/09 00:24:37;;;;;;;13.67;8.13;;;;;;;7.54;90.88;100457.81;5093631;28;20036;-71
2021/05/09 00:27:02;;;;;;;12.73;8.33;;;;;;;7.54;90.24;100462.28;5093501;28;20040;-72
2021/05/09 00:29:28;;;;;;;14.83;8.60;;;;;;;7.57;90.09;100462.00;5075496;28;20039;-72
2021/05/09 00:31:53;;;;;;;11.77;8.67;;;;;;;7.58;90.15;100453.00;5093479;28;20040;-72
2021/05/09 00:34:18;;;;;;;12.90;7.93;;;;;;;7.59;90.05;100452.03;5075790;28;20046;-71
2021/05/09 00:36:43;;;;;;;11.47;8.60;;;;;;;7.61;90.16;100444.78;5093243;28;20473;-72
2021/05/09 00:39:09;;;;;;;10.13;7.37;;;;;;;7.56;89.60;100445.22;5075339;28;20040;-71
2021/05/09 00:41:34;;;;;;;11.47;7.80;;;;;;;7.55;89.69;100440.88;5093303;28;20039;-71
2021/05/09 00:44:02;;;;;;;13.13;7.90;;;;;;;7.57;89.77;100430.09;5075355;28;20040;-72
2021/05/09 00:46:27;;;;;;;13.02;8.18;;;;;;;7.61;89.67;100439.44;5075465;28;20085;-71
2021/05/09 00:48:54;;;;;;;11.47;7.47;;;;;;;7.62;89.28;100441.09;5075165;28;20058;-72
2021/05/09 00:51:21;;;;;;;12.10;6.88;;;;;;;7.70;88.67;100424.41;5075402;28;20043;-71
2021/05/09 00:53:47;;;;;;;11.30;7.32;;;;;;;7.67;88.12;100433.50;5075193;28;20039;-72
2021/05/09 00:56:15;;;;;;;10.82;7.45;;;;;;;7.73;88.43;100434.75;5075305;28;20031;-71
2021/05/09 00:58:43;;;;;;;12.52;7.03;;;;;;;7.75;87.97;100422.97;5092542;28;20043;-71
2021/05/09 01:01:12;;;;;;;7.78;5.93;;;;;;;7.81;87.35;100411.72;5075175;28;20059;-72
2021/05/09 01:03:41;;;;;;;10.70;6.18;;;;;;;7.91;86.47;100416.94;5092894;28;20070;-72
2021/05/09 01:06:07;;;;;;;8.02;5.32;;;;;;;7.90;86.21;100407.31;5074561;28;20051;-71
2021/05/09 01:08:35;;;;;;;9.35;6.32;;;;;;;7.92;85.88;100400.03;5066423;28;20024;-72
2021/05/09 01:11:04;;;;;;;8.18;5.30;;;;;;;8.04;84.74;100400.63;5074556;28;20035;-71
2021/05/09 01:13:31;;;;;;;8.75;5.97;;;;;;;8.02;85.11;100397.28;5092614;28;20543;-71
2021/05/09 01:15:57;;;;;;;8.95;5.18;;;;;;;8.02;85.39;100398.09;5074744;28;20058;-71
2021/05/09 01:18:22;;;;;;;8.32;5.38;;;;;;;8.26;82.81;100388.63;5092312;28;20036;-71
2021/05/09 01:20:48;;;;;;;6.23;4.33;;;;;;;8.36;82.00;100399.19;5074709;28;20032;-71
2021/05/09 01:23:14;;;;;;;6.43;4.97;;;;;;;8.22;83.18;100403.25;5058113;28;20390;-71
2021/05/09 01:25:41;;;;;;;9.68;5.60;;;;;;;8.17;83.63;100401.06;5074525;28;20031;-71
2021/05/09 01:28:07;;;;;;;6.85;5.28;;;;;;;8.15;83.87;100402.22;5074253;28;20035;-71
2021/05/09 01:30:32;;;;;;;7.27;5.17;;;;;;;8.16;83.62;100395.88;5074550;28;20035;-71
2021/05/09 01:32:58;;;;;;;8.47;5.37;;;;;;;8.11;83.86;100393.69;5074474;28;20885;-71
2021/05/09 01:35:23;;;;;;;7.10;5.28;;;;;;;8.11;83.87;100390.19;5074391;28;20032;-71
2021/05/09 01:37:49;;;;;;;8.35;6.18;;;;;;;8.14;83.99;100387.22;5073889;28;20127;-71
2021/05/09 01:40:16;;;;;;;6.97;5.20;;;;;;;8.11;84.09;100385.72;5092199;28;20423;-71
2021/05/09 01:42:41;;;;;;;;;;;;;;;8.14;83.87;100387.22;5074737;28;20051;-71
2021/05/09 01:45:09;;;;;;;7.38;5.80;;;;;;;8.11;84.20;100384.88;5074176;28;19959;-71
2021/05/09 01:47:36;;;;;;;5.82;5.22;;;;;;;8.15;84.11;100383.59;5073927;28;20039;-72
2021/05/09 01:50:05;;;;;;;7.82;6.00;;;;;;;8.11;84.24;100382.22;5057458;28;20066;-72
2021/05/09 01:52:30;;;;;;;17.67;6.53;;;;;;;8.15;83.78;100386.25;5074115;28;20097;-72
2021/05/09 01:54:56;;;;;;;8.40;5.53;;;;;;;8.17;84.02;100384.25;5091900;28;20032;-71
2021/05/09 01:57:21;;;;;;;7.30;5.53;;;;;;;8.17;84.27;100387.75;5057402;28;20114;-71
2021/05/09 01:59:51;;;;;;;6.15;4.93;;;;;;;8.25;83.36;100371.84;5073802;28;20450;-71
2021/05/09 02:02:16;;;;;;;7.17;5.30;;;;;;;8.27;83.72;100378.84;5091924;28;20044;-65
2021/05/09 02:04:50;;;;;;;7.63;4.90;;;;;;;8.25;83.60;100377.16;5073889;28;20419;-65
2021/05/09 02:07:19;;;;;;;9.13;5.35;;;;;;;8.27;84.11;100368.22;5091633;28;20032;-65
2021/05/09 02:09:48;;;;;;;4.97;4.28;;;;;;;8.28;83.26;100370.69;5057454;28;20419;-65
2021/05/09 02:12:15;;;;;;;6.80;4.80;;;;;;;8.37;83.09;100375.06;5073758;28;20093;-65
2021/05/09 02:14:46;;;;;;;8.02;4.63;;;;;;;8.40;82.95;100368.63;5057799;28;20036;-65
2021/05/09 02:17:11;;;;;;;10.77;4.83;;;;;;;8.48;82.35;100378.50;5073070;28;20119;-65
2021/05/09 02:19:40;;;;;;;9.23;4.72;;;;;;;8.52;82.51;100372.72;5073269;28;20287;-65
2021/05/09 02:22:08;;;;;;;8.07;4.22;;;;;;;8.52;82.66;100337.28;5091466;28;20115;-65
2021/05/09 02:24:33;;;;;;;9.95;4.93;;;;;;;8.53;82.78;100374.38;5073835;28;20538;-65
2021/05/09 02:26:59;;;;;;;5.45;3.92;;;;;;;8.49;82.68;100358.88;5073818;28;20032;-65
2021/05/09 02:29:25;;;;;;;12.70;4.88;;;;;;;8.49;83.08;100370.34;5073291;28;20244;-65
2021/05/09 02:31:52;;;;;;;;;;;;;;;8.60;81.94;100355.94;5074022;28;20032;-66
2021/05/09 02:34:26;;;;;;;8.13;4.57;;;;;;;8.60;82.16;100374.56;5073590;28;19985;-65
2021/05/09 02:36:52;;;;;;;8.47;4.97;;;;;;;8.65;82.15;100358.97;5091325;28;20032;-65
2021/05/09 02:39:17;;;;;;;7.97;4.90;;;;;;;8.67;81.33;100383.59;5091079;28;20277;-65
2021/05/09 02:41:43;;;;;;;6.27;3.83;;;;;;;8.74;81.30;100370.50;5073735;28;20081;-65
2021/05/09 02:44:10;;;;;;;4.93;3.70;;;;;;;8.74;81.14;100375.81;5073557;28;20039;-65
2021/05/09 02:46:35;;;;;;;;;;;;;;;8.73;81.64;100385.59;5091667;28;20282;-65
2021/05/09 02:49:01;;;;;;;;;;;;;;;8.76;81.42;100377.31;5091286;28;20371;-65
2021/05/09 02:51:27;;;;;;;5.70;4.35;;;;;;;8.82;80.97;100374.00;5073422;28;19912;-65
2021/05/09 02:53:52;;;;;;;6.30;4.07;;;;;;;8.84;80.61;100366.69;5056777;28;20036;-65
2021/05/09 02:56:18;;;;;;;4.97;3.70;;;;;;;8.82;80.71;100374.00;5091187;28;20980;-65
2021/05/09 02:58:44;;;;;;;6.53;4.38;;;;;;;8.78;81.18;100372.66;5090810;28;20047;-65
2021/05/09 03:01:10;;;;;;;9.33;4.30;;;;;;;8.83;80.65;100374.84;5073202;28;20032;-65
2021/05/09 03:03:36;;;;;;;6.57;4.38;;;;;;;8.81;80.99;100374.19;5073227;28;20596;-65
2021/05/09 03:06:02;;;;;;;6.53;3.70;;;;;;;8.80;80.91;100376.00;5073357;28;20031;-65
2021/05/09 03:08:27;;;;;;;4.68;3.35;;;;;;;8.80;80.99;100381.34;5073036;28;20437;-65
2021/05/09 03:10:53;;;;;;;5.95;3.95;;;;;;;8.68;81.76;100371.13;5073193;28;20118;-65
2021/05/09 03:13:19;;;;;;;5.70;4.10;;;;;;;8.68;81.78;100374.59;5091077;28;20491;-65
2021/05/09 03:15:44;;;;;;;4.73;3.67;;;;;;;8.70;81.75;100379.78;5073205;28;20040;-65
2021/05/09 03:18:10;;;;;;;7.03;4.75;;;;;;;8.66;81.52;100372.13;5056182;28;20035;-65
2021/05/09 03:20:36;;;;;;;4.90;4.07;;;;;;;8.73;81.00;100385.59;5056467;28;20043;-65
2021/05/09 03:23:04;;;;;;;5.85;4.40;;;;;;;8.66;81.77;100379.25;5073182;28;20035;-65
2021/05/09 03:25:29;;;;;;;7.60;3.78;;;;;;;8.68;81.67;100382.59;5090846;28;20189;-65
2021/05/09 03:27:54;;;;;;;4.43;3.73;;;;;;;8.71;81.07;100386.75;5090662;28;20449;-65
2021/05/09 03:30:20;;;;;;;10.23;4.43;;;;;;;8.75;80.74;100383.63;5076473;28;20035;-65
2021/05/09 03:32:45;;;;;;;8.30;4.20;;;;;;;8.72;80.88;100383.13;5094555;28;20038;-64
2021/05/09 03:35:11;;;;;;;8.17;4.20;;;;;;;8.71;80.80;100382.28;5094585;28;20412;-65
2021/05/09 03:37:36;;;;;;;6.00;4.03;;;;;;;8.79;80.28;100377.00;5094156;28;20395;-64
2021/05/09 03:40:04;;;;;;;7.82;4.30;;;;;;;8.77;80.44;100381.63;5094431;28;20054;-64
2021/05/09 03:42:29;;;;;;;7.18;4.32;;;;;;;8.77;80.63;100376.31;5076708;28;20570;-64
2021/05/09 03:44:54;;;;;;;5.80;3.93;;;;;;;8.78;80.36;100374.47;5076548;28;20075;-64
2021/05/09 03:47:25;;;;;;;7.43;3.60;;;;;;;8.82;80.27;100378.50;5094293;28;20028;-64
2021/05/09 03:49:52;;;;;;;4.13;3.10;;;;;;;8.84;80.14;100372.00;5059765;28;20090;-64
2021/05/09 03:52:17;;;;;;;7.65;3.50;;;;;;;8.86;79.89;100375.34;5094350;28;20444;-64
2021/05/09 03:54:43;;;;;;;3.67;3.23;;;;;;;8.96;79.54;100385.03;5094225;28;20078;-64
2021/05/09 03:57:08;;;;;;;4.80;3.90;;;;;;;8.96;79.30;100369.06;5076303;28;20059;-64
2021/05/09 03:59:33;;;;;;;4.17;3.40;;;;;;;8.97;79.51;100374.25;5093881;28;20044;-65
2021/05/09 04:01:59;;;;;;;4.63;3.43;;;;;;;9.06;78.75;100375.06;5076222;28;20059;-64
2021/05/09 04:04:24;;;;;;;5.33;4.00;;;;;;;9.18;78.33;100372.97;5059597;28;20044;-64
2021/05/09 04:06:49;;;;;;;4.50;3.20;;;;;;;9.17;78.53;100372.13;5094052;28;20058;-64
2021/05/09 04:09:15;;;;;;;5.30;3.33;;;;;;;9.15;78.80;100378.59;5093659;28;20373;-64
2021/05/09 04:11:40;;;;;;;4.27;3.13;;;;;;;9.20;78.53;100377.16;5076185;28;20381;-64
2021/05/09 04:14:05;;;;;;;5.33;3.03;;;;;;;9.25;78.52;100381.97;5093778;28;20395;-64
2021/05/09 04:16:31;;;;;;;4.70;3.60;;;;;;;9.26;77.68;100381.81;5075874;28;20035;-65
2021/05/09 04:18:56;;;;;;;5.10;3.60;;;;;;;9.31;78.18;100383.97;5093437;28;20032;-65
2021/05/09 04:21:21;;;;;;;5.53;4.17;;;;;;;9.32;78.24;100384.81;5093703;28;20040;-65
2021/05/09 04:23:46;;;;;;;6.57;2.93;;;;;;;9.36;77.77;100381.66;5093803;28;20051;-65
2021/05/09 04:26:12;;;;;;;7.23;4.00;;;;;;;9.39;77.69;100380.50;5093646;28;20032;-65
2021/05/09 04:28:37;;;;;;;4.30;3.47;;;;;;;9.46;77.46;100381.53;5093371;28;20044;-64
2021/05/09 04:31:03;;;;;;;6.10;2.50;;;;;;;9.47;77.51;100376.03;5075763;28;20055;-65
2021/05/09 04:33:28;;;;;;;10.20;3.33;;;;;;;9.51;76.78;100377.38;5075767;28;20374;-65
2021/05/09 04:35:53;;;;;;;4.13;2.77;;;;;;;9.57;76.78;100373.19;5075660;28;20085;-64
2021/05/09 04:38:20;;;;;;;4.37;3.33;;;;;;;9.63;76.93;100375.22;5093064;28;20036;-65
2021/05/09 04:40:45;;;;;;;4.53;3.10;;;;;;;9.65;76.45;100381.22;5074922;28;20127;-65
2021/05/09 04:43:16;;;;;;;3.72;2.95;;;;;;;9.71;76.44;100377.88;5058735;28;20177;-65
2021/05/09 04:45:49;;;;;;;5.15;2.90;;;;;;;9.79;76.16;100371.72;5093113;28;20119;-65
2021/05/09 04:48:15;;;;;;;3.97;2.90;;;;;;;9.85;75.88;100380.88;5075074;28;20522;-65
2021/05/09 04:50:41;;;;;;;3.78;3.13;;;;;;;9.89;75.98;100379.56;5075415;28;20036;-65
2021/05/09 04:53:29;;;;;;;6.27;2.93;;;;;;;9.99;75.58;100377.53;5075441;28;20043;-65
2021/05/09 04:55:57;;;;;;;3.22;2.63;;;;;;;10.03;74.57;100370.88;5093017;28;20032;-65
2021/05/09 04:58:22;;;;;;;6.75;2.95;;;;;;;10.11;75.01;100375.34;5092670;28;20438;-65
2021/05/09 05:00:52;;;;;;;4.83;3.10;;;;;;;10.14;74.55;100375.88;5092995;28;20074;-65
2021/05/09 05:03:17;;;;;;;3.05;2.50;;;;;;;10.18;74.85;100372.84;5075198;28;20048;-65
2021/05/09 05:05:43;;;;;;;3.83;3.03;;;;;;;10.14;74.77;100377.72;5092916;28;20497;-65
2021/05/09 05:08:08;;;;;;;3.73;2.77;;;;;;;10.17;74.73;100374.69;5092596;28;20040;-65
2021/05/09 05:10:33;;;;;;;6.67;3.30;;;;;;;10.22;74.43;100383.03;5074921;28;20082;-65
2021/05/09 05:12:59;;;;;;;7.47;3.07;;;;;;;10.23;74.88;100379.38;5074975;28;20040;-65
2021/05/09 05:15:24;;;;;;;3.17;2.70;;;;;;;10.25;74.82;100371.19;5092621;28;20071;-65
2021/05/09 05:17:49;;;;;;;4.37;2.97;;;;;;;10.33;73.90;100373.88;5092348;28;20044;-65
2021/05/09 05:20:15;;;;;;;4.20;2.50;;;;;;;10.46;73.66;100382.16;5058109;28;20097;-65
2021/05/09 05:22:40;;;;;;;3.33;2.93;;;;;;;10.52;73.61;100384.16;5092561;28;20036;-65
2021/05/09 05:25:06;;;;;;;3.40;2.30;;;;;;;10.64;73.13;100373.13;5074585;28;20305;-65
2021/05/09 05:27:32;;;;;;;3.17;2.63;;;;;;;10.75;73.52;100378.91;5074378;28;20035;-65
2021/05/09 05:29:57;;;;;;;3.30;2.43;;;;;;;10.75;72.94;100372.75;5092352;28;20032;-65
2021/05/09 05:32:22;;;;;;;4.27;2.60;;;;;;;10.88;72.60;100372.19;5074555;28;20093;-65
2021/05/09 05:34:47;;;;;;;5.03;3.40;;;;;;;10.98;72.18;100378.19;5057781;28;20331;-65
2021/05/09 05:37:13;;;;;;;2.90;2.30;;;;;;;11.88;69.00;100380.28;5092252;28;20037;-65
2021/05/09 05:39:38;;;;;;;4.13;2.30;;;;;;;12.42;67.26;100371.25;5091916;28;20044;-65
2021/05/09 05:42:04;;;;;;;5.43;2.33;;;;;;;12.09;67.52;100376.94;5074444;28;20115;-65
2021/05/09 05:44:29;;;;;;;3.23;2.20;;;;;;;11.84;68.98;100377.09;5092098;28;20365;-65
2021/05/09 05:46:55;;;;;;;6.03;2.50;;;;;;;12.42;67.09;100368.56;5074302;28;20082;-65
2021/05/09 05:49:21;;;;;;;3.50;2.08;;;;;;;12.46;66.36;100372.56;5073998;28;20032;-65
2021/05/09 05:51:46;;;;;;;3.90;2.38;;;;;;;13.02;66.20;100369.38;5073679;28;20369;-65
2021/05/09 05:54:11;;;;;;;7.37;2.60;;;;;;;12.98;64.66;100368.91;5091443;28;20139;-65
2021/05/09 05:56:37;;;;;;;4.90;2.67;;;;;;;13.18;64.31;100362.94;5074188;28;20031;-65
2021/05/09 05:59:02;;;;;;;3.77;2.30;;;;;;;13.23;63.97;100363.25;5091504;28;20036;-65
2021/05/09 06:01:27;;;;;;;5.00;2.60;;;;;;;13.45;63.43;100367.63;5091808;28;20047;-65
2021/05/09 06:03:53;;;;;;;4.23;2.60;;;;;;;14.07;61.87;100359.91;5091814;28;20027;-65
2021/05/09 06:06:18;;;;;;;5.90;2.23;;;;;;;14.07;61.95;100366.13;5091762;28;20032;-65
2021/05/09 06:08:45;;;;;;;2.57;2.03;;;;;;;14.83;59.72;100364.56;5073452;28;20139;-65
2021/05/09 06:11:10;;;;;;;5.50;2.17;;;;;;;14.15;61.78;100363.28;5091471;28;20130;-65
2021/05/09 06:13:35;;;;;;;3.83;2.07;;;;;;;14.06;61.86;100374.38;5073745;28;20040;-65
2021/05/09 06:16:01;;;;;;;4.90;2.47;;;;;;;13.96;62.96;100373.88;5073869;28;20035;-65
2021/05/09 06:18:26;;;;;;;3.77;2.40;;;;;;;13.26;64.80;100368.22;5091239;28;20051;-65
2021/05/09 06:20:53;;;;;;;4.63;2.73;;;;;;;13.81;63.31;100363.22;5073881;28;20040;-65
2021/05/09 06:23:24;;;;;;;3.22;2.35;;;;;;;14.46;60.95;100358.53;5073614;28;20280;-65
2021/05/09 06:25:49;;;;;;;4.20;2.60;;;;;;;14.95;60.12;100368.31;5091605;28;20380;-65
2021/05/09 06:28:15;;;;;;;3.50;2.20;;;;;;;15.15;59.03;100366.56;5091033;28;20036;-65
2021/05/09 06:30:41;;;;;;;6.07;2.40;;;;;;;14.83;59.44;100360.00;5091401;28;20051;-65
2021/05/09 06:33:06;;;;;;;;;;;;;;;15.45;58.37;100362.69;5074030;28;20036;-65
2021/05/09 06:35:36;;;;;;;;;;;;;;;15.50;58.39;100347.63;5074048;28;20355;-65
2021/05/09 06:38:02;;;;;;;3.63;2.30;;;;;;;15.83;56.47;100352.22;5073099;28;19977;-65
2021/05/09 06:40:27;;;;;;;3.77;2.23;;;;;;;15.83;57.22;100352.22;5091308;28;20036;-65
2021/05/09 06:43:00;;;;;;;3.73;2.73;;;;;;;15.70;56.45;100350.34;5073503;28;20039;-65
2021/05/09 06:45:27;;;;;;;5.05;2.40;;;;;;;16.01;56.77;100346.19;5091201;28;20054;-65
2021/05/09 06:47:58;;;;;;;3.22;2.47;;;;;;;15.92;57.14;100356.38;5090987;28;20027;-65
2021/05/09 06:50:24;;;;;;;4.18;2.38;;;;;;;16.02;55.54;100354.09;5091117;28;20093;-65
2021/05/09 06:52:49;;;;;;;3.22;2.17;;;;;;;15.57;58.35;100350.31;5091267;28;20131;-65
2021/05/09 06:55:15;;;;;;;2.90;2.13;;;;;;;15.58;56.91;100341.19;5073454;28;20130;-65
2021/05/09 06:57:41;;;;;;;6.07;2.60;;;;;;;15.67;57.79;100350.72;5090794;28;20040;-65
2021/05/09 07:00:09;;;;;;;3.95;2.20;;;;;;;15.63;57.99;100350.31;5091132;28;20115;-65
2021/05/09 07:02:35;;;;;;;4.88;2.42;;;;;;;15.67;58.40;100347.22;5091132;28;20150;-65
2021/05/09 07:05:00;;;;;;;2.47;2.08;;;;;;;15.79;58.54;100359.06;5076433;28;20111;-65
2021/05/09 07:07:26;;;;;;;3.08;2.08;;;;;;;16.28;57.55;100347.03;5060425;28;20144;-65
2021/05/09 07:09:51;;;;;;;4.63;2.03;;;;;;;15.73;58.09;100349.09;5095033;28;20342;-65
2021/05/09 07:12:16;;;;;;;2.73;1.83;;;;;;;15.49;59.37;100345.94;5095016;28;20048;-65
2021/05/09 07:14:42;;;;;;;7.47;2.50;;;;;;;15.75;58.39;100349.72;5094889;28;20031;-65
2021/05/09 07:17:07;;;;;;;6.90;2.20;;;;;;;15.80;57.77;100358.00;5095006;28;20068;-65
2021/05/09 07:19:33;;;;;;;5.10;2.20;;;;;;;16.35;56.68;100352.41;5076789;28;20039;-65
2021/05/09 07:22:01;;;;;;;3.33;1.93;;;;;;;16.51;56.51;100351.13;5077045;28;20036;-65
2021/05/09 07:24:26;;;;;;;4.00;1.90;;;;;;;16.30;56.85;100344.13;5094797;28;20325;-66
2021/05/09 07:26:51;;;;;;;3.43;2.20;;;;;;;16.75;56.55;100357.69;5077052;28;20051;-66
2021/05/09 07:29:17;;;;;;;6.30;2.00;;;;;;;17.02;55.11;100353.88;5060051;28;20032;-66
2021/05/09 07:31:42;;;;;;;8.83;2.30;;;;;;;16.51;56.78;100356.53;5076988;28;20063;-65
2021/05/09 07:34:11;;;;;;;4.97;1.87;;;;;;;16.55;56.11;100363.13;5060123;28;20031;-65
2021/05/09 07:36:38;;;;;;;6.80;2.10;;;;;;;16.08;58.23;100360.50;5094595;28;20068;-65
2021/05/09 07:39:05;;;;;;;3.60;1.65;;;;;;;16.16;57.45;100354.09;5094183;28;20043;-65
2021/05/09 07:41:30;;;;;;;3.78;2.00;;;;;;;16.48;57.64;100367.69;5094577;28;20036;-65
2021/05/09 07:43:55;;;;;;;3.50;2.00;;;;;;;16.44;57.32;100370.81;5076606;28;20495;-65
2021/05/09 07:46:21;;;;;;;4.03;2.70;;;;;;;16.61;56.65;100363.09;5060028;28;20036;-65
2021/05/09 07:48:47;;;;;;;5.63;2.17;;;;;;;16.46;56.78;100359.84;5093965;28;20064;-65
2021/05/09 07:51:12;;;;;;;7.00;2.50;;;;;;;16.26;57.22;100359.88;5094348;28;20074;-65
2021/05/09 07:53:37;;;;;;;3.63;2.23;;;;;;;16.46;56.95;100357.97;5094288;28;20610;-65
2021/05/09 07:56:03;;;;;;;5.83;1.90;;;;;;;16.91;55.95;100361.81;5076370;28;20097;-66
2021/05/09 07:58:28;;;;;;;4.37;1.80;;;;;;;17.15;54.77;100358.38;5093827;28;20043;-66
2021/05/09 08:00:53;;;;;;;6.30;2.47;;;;;;;17.39;54.60;100355.97;5094157;28;20055;-66
2021/05/09 08:03:22;;;;;;;5.93;2.30;;;;;;;17.41;54.50;100356.56;5076310;28;20050;-65
2021/05/09 08:05:47;;;;;;;4.45;2.47;;;;;;;17.78;54.00;100352.16;5076239;28;20032;-65
2021/05/09 08:08:13;;;;;;;7.33;2.30;;;;;;;17.30;53.98;100358.94;5093888;28;20039;-65
2021/05/09 08:10:41;;;;;;;4.03;2.40;;;;;;;17.71;53.50;100352.22;5094096;28;20757;-66
2021/05/09 08:13:11;;;;;;;15.73;2.25;;;;;;;17.78;53.00;100354.06;5093958;28;20044;-66
2021/05/09 08:15:38;;;;;;;4.55;2.10;;;;;;;17.28;54.20;100352.91;5092700;28;20032;-65
2021/05/09 08:18:03;;;;;;;4.57;2.28;;;;;;;17.28;54.41;100352.91;5093408;28;20131;-65
2021/05/09 08:20:29;;;;;;;8.27;2.45;;;;;;;17.90;53.60;100346.91;5075898;28;20056;-65
2021/05/09 08:22:54;;;;;;;3.72;1.95;;;;;;;17.88;53.72;100336.31;5093657;28;20051;-66
2021/05/09 08:25:21;;;;;;;6.00;2.00;;;;;;;18.61;51.57;100345.59;5075993;28;20039;-66
2021/05/09 08:27:46;;;;;;;3.33;2.28;;;;;;;18.37;52.15;100346.50;5075523;28;20798;-65
2021/05/09 08:30:14;;;;;;;4.80;2.10;;;;;;;18.77;51.55;100344.19;5093589;28;20071;-65
2021/05/09 08:32:40;;;;;;;4.18;2.05;;;;;;;18.64;51.92;100349.75;5075606;28;20039;-65
2021/05/09 08:35:10;;;;;;;4.23;2.20;;;;;;;18.35;53.04;100341.28;5093587;28;20032;-65
2021/05/09 08:37:36;;;;;;;7.38;2.22;;;;;;;18.53;53.73;100341.31;5067597;28;20032;-66
2021/05/09 08:40:02;;;;;;;4.90;2.15;;;;;;;18.20;54.03;100346.25;5093467;28;20038;-66
2021/05/09 08:42:27;;;;;;;2.45;2.17;;;;;;;18.48;53.69;100346.56;5075637;28;20028;-66
2021/05/09 08:44:54;;;;;;;3.57;2.20;;;;;;;18.61;52.79;100340.19;5075583;28;20709;-66
2021/05/09 08:47:36;;;;;;;4.38;2.58;;;;;;;18.25;53.78;100347.22;5058747;28;20063;-65
2021/05/09 08:50:03;;;;;;;5.82;2.50;;;;;;;18.51;53.29;100350.69;5075454;28;20042;-65
2021/05/09 08:52:29;;;;;;;6.43;2.53;;;;;;;18.80;52.56;100337.50;5075389;28;20040;-66
2021/05/09 08:54:54;;;;;;;5.10;2.23;;;;;;;19.04;51.85;100341.19;5093133;28;20306;-66
2021/05/09 08:57:19;;;;;;;3.77;1.93;;;;;;;19.31;50.91;100334.31;5092948;28;20036;-66
2021/05/09 08:59:44;;;;;;;3.13;2.00;;;;;;;19.32;51.29;100336.00;5092286;28;20035;-65
2021/05/09 09:02:10;;;;;;;3.93;2.03;;;;;;;19.47;50.14;100332.03;5058569;28;20060;-65
2021/05/09 09:04:51;;;;;;;4.65;2.30;;;;;;;19.00;52.43;100329.97;5092936;28;20110;-65
2021/05/09 09:07:16;;;;;;;3.35;1.80;;;;;;;20.10;50.39;100330.63;5058385;28;20186;-65
2021/05/09 09:09:44;;;;;;;8.73;2.17;;;;;;;20.27;50.32;100319.91;5074815;28;20446;-65
2021/05/09 09:12:10;;;;;;;5.90;2.25;;;;;;;20.17;50.01;100326.72;5058139;28;20040;-66
2021/05/09 09:14:51;;;;;;;3.85;1.83;;;;;;;20.61;49.34;100316.34;5058184;28;20051;-66
2021/05/09 09:17:17;;;;;;;4.07;2.10;;;;;;;20.95;49.80;100327.31;5058215;28;20364;-66
2021/05/09 09:20:18;;;;;;;3.08;2.15;;;;;;;21.38;47.09;100317.84;5074728;28;20050;-65
2021/05/09 09:22:49;;;;;;;4.53;1.95;;;;;;;21.23;46.56;100318.34;5074737;28;20044;-65
2021/05/09 09:25:15;;;;;;;4.25;2.30;;;;;;;20.92;48.02;100325.09;5057983;28;20051;-66
2021/05/09 09:27:48;;;;;;;2.92;1.63;;;;;;;21.83;46.06;100318.88;5074157;28;20016;-66
2021/05/09 09:30:15;;;;;;;4.28;2.25;;;;;;;21.08;45.82;100312.66;5057947;28;20626;-66
2021/05/09 09:32:40;;;;;;;2.78;1.80;;;;;;;20.81;46.78;100310.53;5058014;28;20040;-72
2021/05/09 09:35:29;;;;;;;3.47;2.10;;;;;;;20.43;47.50;100301.00;5057813;28;20047;-71
2021/05/09 09:37:55;;;;;;;4.13;2.80;;;;;;;20.52;47.83;100306.91;5063961;28;20063;-72
2021/05/09 09:40:21;;;;;;;6.50;2.72;;;;;;;20.71;47.85;100304.06;5074436;28;20040;-72
2021/05/09 09:42:48;;;;;;;2.73;2.00;;;;;;;21.15;45.55;100290.81;5074482;28;20423;-65
2021/05/09 09:45:24;;;;;;;4.25;2.03;;;;;;;20.75;46.42;100303.34;5057896;28;20367;-65
2021/05/09 09:47:54;;;;;;;2.80;1.77;;;;;;;20.53;46.28;100286.03;5074089;28;20427;-65
2021/05/09 09:50:52;;;;;;;5.45;2.00;;;;;;;20.58;46.51;100300.56;5092142;28;20453;-65
2021/05/09 09:53:30;;;;;;;5.85;2.05;;;;;;;20.94;45.45;100297.75;5039436;28;20048;-65
2021/05/09 09:56:00;;;;;;;3.67;2.42;;;;;;;20.83;46.29;100281.25;5074026;28;20378;-65
2021/05/09 09:58:40;;;;;;;8.57;2.47;;;;;;;21.57;45.27;100287.78;5091561;28;20036;-66
2021/05/09 10:01:05;;;;;;;5.88;2.25;;;;;;;21.33;45.49;100282.44;5074050;28;20046;-66
2021/05/09 10:03:31;;;;;;;2.72;1.88;;;;;;;21.45;45.37;100282.41;5091864;28;20377;-65
2021/05/09 10:05:58;;;;;;;3.70;2.20;;;;;;;21.66;44.68;100268.09;5073981;28;20063;-66
2021/05/09 10:08:24;;;;;;;4.47;2.08;;;;;;;21.93;44.05;100294.56;5091291;28;20032;-66
2021/05/09 10:10:51;;;;;;;2.93;1.93;;;;;;;21.04;44.80;100277.03;5091575;28;20088;-66
2021/05/09 10:13:18;;;;;;;2.47;2.13;;;;;;;21.40;43.03;100275.00;5073550;28;20366;-65
2021/05/09 10:15:43;;;;;;;2.78;1.77;;;;;;;22.13;42.71;100247.84;5091527;28;20138;-65
2021/05/09 10:18:09;;;;;;;4.30;2.20;;;;;;;21.42;42.55;100278.31;5091203;28;20480;-65
2021/05/09 10:20:34;;;;;;;4.32;1.92;;;;;;;21.66;42.36;100272.72;5073668;28;20483;-65
2021/05/09 10:23:04;;;;;;;2.33;2.13;;;;;;;21.83;42.95;100262.63;5091258;28;20043;-66
2021/05/09 10:25:50;;;;;;;2.78;1.67;;;;;;;22.47;39.98;100272.25;5073464;28;20089;-66
2021/05/09 10:28:21;;;;;;;4.93;1.92;;;;;;;22.11;40.97;100252.72;5091122;28;20036;-66
2021/05/09 10:30:58;;;;;;;3.63;1.77;;;;;;;22.51;40.89;100254.34;5091480;28;20051;-66
2021/05/09 10:33:39;;;;;;;4.18;2.25;;;;;;;22.90;40.27;100259.69;5091347;28;20032;-66
2021/05/09 10:36:06;;;;;;;7.57;2.15;;;;;;;21.56;41.74;100262.47;5073680;28;20044;-66
2021/05/09 10:39:09;;;;;;;2.83;2.20;;;;;;;21.95;41.51;100248.94;5090211;28;20418;-66
2021/05/09 10:41:53;;;;;;;3.00;2.20;;;;;;;21.59;42.17;100239.47;5073354;28;20032;-65
2021/05/09 10:44:47;;;;;;;7.18;1.95;;;;;;;21.28;42.32;100252.47;5091170;28;20043;-66
2021/05/09 10:47:31;;;;;;;4.90;1.92;;;;;;;21.39;42.58;100231.75;5073424;28;20032;-66
2021/05/09 10:50:14;;;;;;;6.45;2.08;;;;;;;22.25;41.94;100239.63;5073373;28;20036;-66
2021/05/09 10:52:45;;;;;;;5.00;2.20;;;;;;;22.24;41.46;100248.81;5073418;28;20065;-66
2021/05/09 10:55:35;;;;;;;2.40;2.15;;;;;;;22.17;41.98;100240.00;5091128;28;20476;-66
2021/05/09 10:58:05;;;;;;;4.38;1.48;;;;;;;23.14;39.04;100242.00;5056355;28;20044;-66
2021/05/09 11:00:58;;;;;;;4.90;1.90;;;;;;;22.91;39.15;100245.81;5091024;28;20035;-66
2021/05/09 11:03:36;;;;;;;4.60;2.10;;;;;;;22.49;40.73;100242.91;5091171;28;20515;-66
2021/05/09 11:06:12;;;;;;;4.38;2.13;;;;;;;23.21;40.16;100233.63;5073331;28;20071;-66
2021/05/09 11:08:48;;;;;;;;;;;;;;;23.33;40.13;100231.53;5091216;28;20043;-66
2021/05/09 11:11:13;;;;;;;;;;;;;;;23.57;38.75;100229.25;5073724;28;19963;-66
2021/05/09 11:14:00;;;;;;;2.50;1.65;;;;;;;23.07;39.29;100232.41;5073131;28;19959;-66
2021/05/09 11:16:30;;;;;;;6.82;2.08;;;;;;;23.41;39.63;100232.94;5073104;28;20048;-66
2021/05/09 11:19:00;;;;;;;4.32;2.25;;;;;;;23.48;39.29;100225.38;5072900;28;20114;-66
2021/05/09 11:21:31;;;;;;;3.58;1.70;;;;;;;22.82;40.26;100213.88;5090737;28;20035;-66
2021/05/09 11:24:01;;;;;;;4.88;1.48;;;;;;;23.47;39.42;100220.22;5090950;28;20457;-66
2021/05/09 11:26:30;;;;;;;3.83;1.85;;;;;;;23.52;38.92;100251.03;5073115;28;20075;-66
2021/05/09 11:29:13;;;;;;;5.07;1.70;;;;;;;23.72;38.38;100249.56;5090521;28;20047;-66
2021/05/09 11:31:46;;;;;;;5.07;2.38;;;;;;;23.77;38.49;100249.63;5090614;28;20024;-66